createdAt,value
2019-03-15T00:00:44.070Z,11.48
2019-03-15T00:01:28.337Z,11.49
2019-03-15T00:02:08.822Z,11.59
2019-03-15T00:02:50.153Z,11.46
2019-03-15T00:03:35.442Z,11.48
2019-03-15T00:04:15.827Z,11.56
2019-03-15T00:04:57.207Z,11.45
2019-03-15T00:05:38.509Z,11.56
2019-03-15T00:06:19.002Z,11.54
2019-03-15T00:06:59.273Z,11.53
2019-03-15T00:07:39.811Z,11.53
2019-03-15T00:08:20.219Z,11.54
2019-03-15T00:09:00.641Z,11.49
2019-03-15T00:09:41.003Z,11.45
2019-03-15T00:10:21.396Z,11.59
2019-03-15T00:11:01.791Z,11.45
2019-03-15T00:11:42.299Z,11.53
2019-03-15T00:12:22.549Z,11.6
2019-03-15T00:13:02.941Z,11.59
2019-03-15T00:13:43.333Z,11.51
2019-03-15T00:14:25.585Z,11.54
2019-03-15T00:15:05.955Z,11.45
2019-03-15T00:15:46.340Z,11.51
2019-03-15T00:16:28.342Z,11.48
2019-03-15T00:17:08.799Z,11.56
2019-03-15T00:17:49.127Z,11.54
2019-03-15T00:18:29.541Z,11.62
2019-03-15T00:19:10.001Z,11.66
2019-03-15T00:19:50.376Z,11.66
2019-03-15T00:20:30.751Z,11.7
2019-03-15T00:21:11.174Z,11.66
2019-03-15T00:21:51.485Z,11.7
2019-03-15T00:22:31.972Z,11.7
2019-03-15T00:23:12.293Z,11.64
2019-03-15T00:23:52.703Z,11.75
2019-03-15T00:24:33.140Z,11.81
2019-03-15T00:25:13.465Z,11.72
2019-03-15T00:25:55.393Z,11.63
2019-03-15T00:26:34.254Z,11.64
2019-03-15T00:27:14.621Z,11.66
2019-03-15T00:27:55.001Z,11.7
2019-03-15T00:28:35.391Z,11.69
2019-03-15T00:29:15.833Z,11.72
2019-03-15T00:29:56.274Z,11.63
2019-03-15T00:30:36.581Z,11.66
2019-03-15T00:31:19.667Z,11.59
2019-03-15T00:32:00.057Z,11.57
2019-03-15T00:32:40.554Z,11.59
2019-03-15T00:33:20.898Z,11.57
2019-03-15T00:34:03.096Z,11.6
2019-03-15T00:34:43.519Z,11.62
2019-03-15T00:35:23.886Z,11.59
2019-03-15T00:37:36.661Z,11.57
2019-03-15T00:38:17.428Z,11.39
2019-03-15T00:38:57.824Z,11.57
2019-03-15T00:39:38.252Z,11.45
2019-03-15T00:40:18.741Z,11.42
2019-03-15T00:41:00.002Z,11.51
2019-03-15T00:41:40.507Z,11.53
2019-03-15T00:42:21.002Z,11.45
2019-03-15T00:43:01.303Z,11.44
2019-03-15T00:43:41.736Z,11.49
2019-03-15T00:44:23.022Z,11.44
2019-03-15T00:45:03.647Z,11.45
2019-03-15T00:45:44.213Z,11.6
2019-03-15T00:46:25.484Z,11.42
2019-03-15T00:47:05.900Z,11.33
2019-03-15T00:47:46.998Z,11.36
2019-03-15T00:48:27.374Z,11.31
2019-03-15T00:49:07.710Z,11.46
2019-03-15T00:49:49.939Z,11.44
2019-03-15T00:50:30.256Z,11.39
2019-03-15T00:51:10.895Z,11.3
2019-03-15T00:51:53.073Z,11.33
2019-03-15T00:52:33.510Z,11.33
2019-03-15T00:53:14.897Z,11.21
2019-03-15T00:53:55.244Z,11.19
2019-03-15T00:54:35.770Z,11.2
2019-03-15T00:55:18.315Z,11.24
2019-03-15T00:55:58.679Z,11.26
2019-03-15T00:56:39.205Z,11.24
2019-03-15T00:57:19.505Z,11.28
2019-03-15T00:58:00.989Z,11.26
2019-03-15T00:58:41.329Z,11.26
2019-03-15T00:59:21.715Z,11.39
2019-03-15T01:00:04.307Z,11.36
2019-03-15T01:00:44.619Z,11.36
2019-03-15T01:01:24.996Z,11.3
2019-03-15T01:02:05.424Z,11.26
2019-03-15T01:02:45.842Z,11.31
2019-03-15T01:03:26.248Z,11.23
2019-03-15T01:04:09.299Z,11.31
2019-03-15T01:04:48.029Z,11.23
2019-03-15T01:05:30.315Z,11.24
2019-03-15T01:06:10.708Z,11.26
2019-03-15T01:06:51.056Z,11.27
2019-03-15T01:07:31.419Z,11.23
2019-03-15T01:09:45.995Z,11.2
2019-03-15T01:10:29.125Z,11.11
2019-03-15T01:11:11.081Z,11.16
2019-03-15T01:11:51.471Z,11.17
2019-03-15T01:12:32.817Z,11.13
2019-03-15T01:13:13.280Z,11.13
2019-03-15T01:13:53.690Z,11.12
2019-03-15T01:14:34.063Z,11.17
2019-03-15T01:15:15.451Z,11.23
2019-03-15T01:15:58.121Z,11.28
2019-03-15T01:16:39.398Z,11.24
2019-03-15T01:17:20.113Z,11.28
2019-03-15T01:18:01.155Z,11.2
2019-03-15T01:18:44.186Z,11.19
2019-03-15T01:19:23.836Z,11.2
2019-03-15T01:20:05.216Z,11.2
2019-03-15T01:20:47.516Z,11.19
2019-03-15T01:21:27.820Z,11.13
2019-03-15T01:22:08.242Z,11.16
2019-03-15T01:22:48.676Z,11.26
2019-03-15T01:23:29.180Z,11.16
2019-03-15T01:24:09.731Z,11.2
2019-03-15T01:24:50.131Z,11.16
2019-03-15T01:25:30.614Z,11.19
2019-03-15T01:26:10.989Z,11.2
2019-03-15T01:26:51.268Z,11.23
2019-03-15T01:27:31.650Z,11.28
2019-03-15T01:28:12.018Z,11.27
2019-03-15T01:28:53.304Z,11.2
2019-03-15T01:29:33.722Z,11.13
2019-03-15T01:30:14.096Z,11.17
2019-03-15T01:30:54.514Z,11.19
2019-03-15T01:31:34.931Z,11.16
2019-03-15T01:32:15.291Z,11.24
2019-03-15T01:32:55.658Z,11.17
2019-03-15T01:33:36.050Z,11.17
2019-03-15T01:34:16.383Z,11.21
2019-03-15T01:34:58.556Z,11.19
2019-03-15T01:35:38.922Z,11.11
2019-03-15T01:36:21.886Z,11.08
2019-03-15T01:37:05.430Z,11.17
2019-03-15T01:37:47.750Z,11.13
2019-03-15T01:38:32.930Z,11.11
2019-03-15T01:39:13.181Z,11.11
2019-03-15T01:39:53.691Z,11.12
2019-03-15T01:40:35.053Z,11.17
2019-03-15T01:41:15.325Z,11.17
2019-03-15T01:41:57.252Z,11.21
2019-03-15T01:42:40.650Z,11.13
2019-03-15T01:43:22.000Z,11.19
2019-03-15T01:44:03.479Z,11.2
2019-03-15T01:44:45.325Z,11.12
2019-03-15T01:45:27.269Z,11.05
2019-03-15T01:46:09.925Z,11.13
2019-03-15T01:46:50.292Z,11.11
2019-03-15T01:47:32.764Z,11.13
2019-03-15T01:48:13.094Z,11.17
2019-03-15T01:48:54.535Z,11.13
2019-03-15T01:49:34.847Z,11.11
2019-03-15T01:50:15.277Z,11.11
2019-03-15T01:50:56.579Z,11.12
2019-03-15T01:51:36.958Z,11.17
2019-03-15T01:52:18.967Z,11.19
2019-03-15T01:52:59.385Z,11.2
2019-03-15T01:53:39.720Z,11.23
2019-03-15T01:54:20.159Z,11.21
2019-03-15T01:55:00.517Z,11.13
2019-03-15T01:55:40.960Z,11.17
2019-03-15T01:56:23.284Z,11.23
2019-03-15T01:57:03.670Z,11.19
2019-03-15T01:57:44.073Z,11.12
2019-03-15T01:58:25.398Z,11.2
2019-03-15T01:59:09.319Z,11.21
2019-03-15T01:59:49.763Z,11.26
2019-03-15T02:01:20.201Z,11.28
2019-03-15T02:02:00.424Z,11.28
2019-03-15T02:02:41.863Z,11.38
2019-03-15T02:03:22.269Z,11.33
2019-03-15T02:04:04.226Z,11.31
2019-03-15T02:04:51.294Z,11.3
2019-03-15T02:05:31.747Z,11.19
2019-03-15T02:06:12.987Z,11.16
2019-03-15T02:06:53.370Z,11.11
2019-03-15T02:07:37.836Z,11.16
2019-03-15T02:08:18.283Z,11.19
2019-03-15T02:09:00.533Z,11.26
2019-03-15T02:09:40.879Z,11.2
2019-03-15T02:10:22.180Z,11.21
2019-03-15T02:11:06.426Z,11.23
2019-03-15T02:11:46.837Z,11.19
2019-03-15T02:12:28.181Z,11.16
2019-03-15T02:13:08.543Z,11.09
2019-03-15T02:13:49.917Z,11.21
2019-03-15T02:14:33.434Z,11.19
2019-03-15T02:15:14.738Z,11.12
2019-03-15T02:15:57.009Z,11.09
2019-03-15T02:16:37.430Z,11.09
2019-03-15T02:17:22.163Z,11.11
2019-03-15T02:18:02.518Z,11.19
2019-03-15T02:18:42.947Z,11.11
2019-03-15T02:19:24.253Z,11.08
2019-03-15T02:20:04.708Z,11.11
2019-03-15T02:20:45.121Z,11.08
2019-03-15T02:21:25.461Z,11.06
2019-03-15T02:22:05.878Z,11.03
2019-03-15T02:22:47.449Z,11.05
2019-03-15T02:23:29.917Z,11.13
2019-03-15T02:24:10.557Z,11.08
2019-03-15T02:24:51.009Z,11.09
2019-03-15T02:25:33.005Z,11.11
2019-03-15T02:26:15.175Z,11.13
2019-03-15T02:26:55.556Z,11.12
2019-03-15T02:27:37.499Z,11.13
2019-03-15T02:28:17.829Z,11.23
2019-03-15T02:28:58.269Z,11.17
2019-03-15T02:29:38.637Z,11.16
2019-03-15T02:30:19.013Z,11.27
2019-03-15T02:30:59.734Z,11.26
2019-03-15T02:31:39.861Z,11.3
2019-03-15T02:32:20.161Z,11.35
2019-03-15T02:33:00.577Z,11.36
2019-03-15T02:33:40.972Z,11.38
2019-03-15T02:34:25.468Z,11.33
2019-03-15T02:35:05.787Z,11.27
2019-03-15T02:35:47.037Z,11.28
2019-03-15T02:36:26.557Z,11.42
2019-03-15T02:37:07.223Z,11.49
2019-03-15T02:37:47.580Z,11.51
2019-03-15T02:38:31.518Z,11.51
2019-03-15T02:39:11.976Z,11.49
2019-03-15T02:39:54.091Z,11.49
2019-03-15T02:40:39.152Z,11.39
2019-03-15T02:41:19.437Z,11.38
2019-03-15T02:41:59.809Z,11.44
2019-03-15T02:42:40.171Z,11.42
2019-03-15T02:43:20.589Z,11.35
2019-03-15T02:44:01.149Z,11.3
2019-03-15T02:44:41.619Z,11.31
2019-03-15T02:45:21.846Z,11.38
2019-03-15T02:46:02.231Z,11.3
2019-03-15T02:46:42.558Z,11.31
2019-03-15T02:47:23.038Z,11.33
2019-03-15T02:48:05.269Z,11.3
2019-03-15T02:48:45.683Z,11.36
2019-03-15T02:49:26.537Z,11.31
2019-03-15T02:51:26.829Z,11.41
2019-03-15T02:52:07.271Z,11.38
2019-03-15T02:52:47.695Z,11.42
2019-03-15T02:53:28.106Z,11.31
2019-03-15T02:54:08.565Z,11.38
2019-03-15T02:54:48.964Z,11.3
2019-03-15T02:55:29.340Z,11.35
2019-03-15T02:56:09.749Z,11.33
2019-03-15T02:56:50.149Z,11.39
2019-03-15T02:57:30.571Z,11.35
2019-03-15T02:58:10.964Z,11.3
2019-03-15T02:58:51.360Z,11.35
2019-03-15T02:59:33.465Z,11.28
2019-03-15T03:00:14.076Z,11.33
2019-03-15T03:00:54.238Z,11.31
2019-03-15T03:01:34.629Z,11.23
2019-03-15T03:02:17.143Z,11.23
2019-03-15T03:02:57.575Z,11.16
2019-03-15T03:03:37.919Z,11.26
2019-03-15T03:04:18.288Z,11.2
2019-03-15T03:04:58.696Z,11.08
2019-03-15T03:05:39.085Z,11.16
2019-03-15T03:06:19.455Z,11.16
2019-03-15T03:06:59.818Z,11.08
2019-03-15T03:07:40.235Z,11.03
2019-03-15T03:08:20.618Z,11.09
2019-03-15T03:09:01.053Z,11.13
2019-03-15T03:09:41.474Z,11.19
2019-03-15T03:10:21.863Z,11.13
2019-03-15T03:11:02.286Z,11.17
2019-03-15T03:11:42.728Z,11.03
2019-03-15T03:12:23.239Z,11.11
2019-03-15T03:13:03.667Z,11.08
2019-03-15T03:13:44.189Z,11.09
2019-03-15T03:14:24.457Z,11.17
2019-03-15T03:15:04.882Z,11.08
2019-03-15T03:15:45.358Z,10.95
2019-03-15T03:16:25.766Z,10.91
2019-03-15T03:17:06.112Z,10.9
2019-03-15T03:17:46.719Z,10.76
2019-03-15T03:18:27.061Z,10.83
2019-03-15T03:19:07.482Z,10.87
2019-03-15T03:19:47.954Z,10.84
2019-03-15T03:20:28.305Z,10.88
2019-03-15T03:21:08.733Z,10.88
2019-03-15T03:21:49.136Z,10.78
2019-03-15T03:22:29.565Z,10.86
2019-03-15T03:23:09.990Z,10.87
2019-03-15T03:23:50.356Z,10.73
2019-03-15T03:24:30.778Z,10.73
2019-03-15T03:25:11.209Z,10.72
2019-03-15T03:25:51.617Z,10.84
2019-03-15T03:26:32.059Z,10.78
2019-03-15T03:27:12.431Z,10.88
2019-03-15T03:27:52.872Z,10.93
2019-03-15T03:28:33.265Z,10.86
2019-03-15T03:29:13.677Z,10.9
2019-03-15T03:29:54.106Z,10.99
2019-03-15T03:30:34.485Z,10.95
2019-03-15T03:31:15.798Z,10.99
2019-03-15T03:31:55.320Z,10.91
2019-03-15T03:32:35.787Z,10.91
2019-03-15T03:33:16.138Z,10.88
2019-03-15T03:33:56.539Z,10.83
2019-03-15T03:34:36.927Z,10.86
2019-03-15T03:35:17.351Z,10.91
2019-03-15T03:35:57.736Z,10.91
2019-03-15T03:36:38.133Z,10.88
2019-03-15T03:37:18.929Z,10.73
2019-03-15T03:37:58.952Z,10.75
2019-03-15T03:38:39.487Z,10.76
2019-03-15T03:39:19.804Z,10.72
2019-03-15T03:40:01.299Z,10.78
2019-03-15T03:40:40.565Z,10.75
2019-03-15T03:41:23.132Z,10.81
2019-03-15T03:42:02.205Z,10.73
2019-03-15T03:42:42.752Z,10.75
2019-03-15T03:43:23.173Z,10.75
2019-03-15T03:44:03.561Z,10.81
2019-03-15T03:44:43.925Z,10.75
2019-03-15T03:45:24.371Z,10.68
2019-03-15T03:46:04.778Z,10.66
2019-03-15T03:46:45.146Z,10.6
2019-03-15T03:47:25.557Z,10.68
2019-03-15T03:48:05.978Z,10.7
2019-03-15T03:48:46.397Z,10.63
2019-03-15T03:49:27.410Z,10.63
2019-03-15T03:50:07.248Z,10.69
2019-03-15T03:50:47.696Z,10.66
2019-03-15T03:51:28.080Z,10.66
2019-03-15T03:52:08.467Z,10.65
2019-03-15T03:52:48.833Z,10.58
2019-03-15T03:53:29.331Z,10.55
2019-03-15T03:54:09.650Z,10.62
2019-03-15T03:54:50.081Z,10.52
2019-03-15T03:55:30.551Z,10.57
2019-03-15T03:56:10.905Z,10.6
2019-03-15T03:56:51.322Z,10.58
2019-03-15T03:57:31.809Z,10.55
2019-03-15T03:58:12.152Z,10.49
2019-03-15T03:58:52.558Z,10.47
2019-03-15T03:59:32.963Z,10.52
2019-03-15T04:00:13.772Z,10.44
2019-03-15T04:00:54.185Z,10.51
2019-03-15T04:01:34.485Z,10.54
2019-03-15T04:02:14.908Z,10.47
2019-03-15T04:02:55.485Z,10.58
2019-03-15T04:03:35.908Z,10.6
2019-03-15T04:04:16.411Z,10.69
2019-03-15T04:04:56.743Z,10.62
2019-03-15T04:05:37.143Z,10.58
2019-03-15T04:06:17.981Z,10.62
2019-03-15T04:06:58.442Z,10.68
2019-03-15T04:07:38.812Z,10.66
2019-03-15T04:08:19.219Z,10.55
2019-03-15T04:08:59.620Z,10.54
2019-03-15T04:09:40.188Z,10.58
2019-03-15T04:10:20.426Z,10.55
2019-03-15T04:11:00.799Z,10.58
2019-03-15T04:11:54.170Z,10.55
2019-03-15T04:12:21.605Z,10.54
2019-03-15T04:13:01.970Z,10.57
2019-03-15T04:13:42.403Z,10.69
2019-03-15T04:14:22.777Z,10.66
2019-03-15T04:15:03.319Z,10.75
2019-03-15T04:15:43.627Z,10.72
2019-03-15T04:16:24.060Z,10.73
2019-03-15T04:17:04.731Z,10.75
2019-03-15T04:17:44.830Z,10.65
2019-03-15T04:18:42.775Z,10.58
2019-03-15T04:19:24.652Z,10.6
2019-03-15T04:20:03.862Z,10.7
2019-03-15T04:20:44.284Z,10.7
2019-03-15T04:21:24.726Z,10.62
2019-03-15T04:22:07.680Z,10.62
2019-03-15T04:22:49.035Z,10.68
2019-03-15T04:23:29.446Z,10.7
2019-03-15T04:24:09.864Z,10.81
2019-03-15T04:24:50.232Z,10.7
2019-03-15T04:25:31.573Z,10.75
2019-03-15T04:26:13.791Z,10.66
2019-03-15T04:26:54.205Z,10.66
2019-03-15T04:27:36.493Z,10.69
2019-03-15T04:28:16.868Z,10.69
2019-03-15T04:28:57.369Z,10.69
2019-03-15T05:08:29.117Z,10.31
2019-03-15T05:10:24.490Z,10.34
2019-03-15T05:11:27.641Z,10.28
2019-03-15T05:12:28.659Z,10.2
2019-03-15T05:13:27.740Z,10.13
2019-03-15T05:15:22.607Z,10.22
2019-03-15T05:16:07.819Z,10.22
2019-03-15T05:16:49.846Z,10.28
2019-03-15T05:17:30.001Z,10.38
2019-03-15T05:18:11.378Z,10.39
2019-03-15T05:18:52.337Z,10.29
2019-03-15T05:19:33.119Z,10.34
2019-03-15T05:20:13.876Z,10.46
2019-03-15T05:20:54.864Z,10.42
2019-03-15T05:21:38.299Z,10.44
2019-03-15T05:22:18.440Z,10.46
2019-03-15T05:23:08.883Z,10.49
2019-03-15T05:32:57.793Z,10.69
2019-03-15T05:33:38.347Z,10.57
2019-03-15T05:34:19.830Z,10.57
2019-03-15T05:35:00.419Z,10.66
2019-03-15T05:35:40.602Z,10.62
2019-03-15T05:36:21.013Z,10.54
2019-03-15T05:37:01.501Z,10.58
2019-03-15T05:37:41.828Z,10.49
2019-03-15T05:38:22.348Z,10.51
2019-03-15T05:39:02.575Z,10.49
2019-03-15T05:39:42.965Z,10.55
2019-03-15T05:40:23.353Z,10.6
2019-03-15T05:41:03.739Z,10.57
2019-03-15T05:41:44.120Z,10.54
2019-03-15T05:42:24.565Z,10.44
2019-03-15T05:43:04.952Z,10.55
2019-03-15T05:43:45.434Z,10.46
2019-03-15T05:44:25.750Z,10.46
2019-03-15T05:45:06.132Z,10.49
2019-03-15T05:45:46.512Z,10.51
2019-03-15T05:46:26.950Z,10.51
2019-03-15T05:47:07.294Z,10.54
2019-03-15T05:47:47.708Z,10.6
2019-03-15T05:48:29.074Z,10.58
2019-03-15T05:49:09.572Z,10.54
2019-03-15T05:49:50.298Z,10.58
2019-03-15T05:50:30.660Z,10.55
2019-03-15T05:51:11.076Z,10.63
2019-03-15T05:51:51.382Z,10.66
2019-03-15T05:52:31.805Z,10.6
2019-03-15T05:53:12.216Z,10.69
2019-03-15T05:53:52.616Z,10.75
2019-03-15T05:54:32.999Z,10.7
2019-03-15T05:55:13.376Z,10.78
2019-03-15T05:55:53.702Z,10.73
2019-03-15T05:56:34.145Z,10.73
2019-03-15T05:57:14.524Z,10.78
2019-03-15T05:57:54.937Z,10.75
2019-03-15T05:58:35.277Z,10.8
2019-03-15T05:59:15.713Z,10.73
2019-03-15T05:59:56.126Z,10.87
2019-03-15T06:00:37.039Z,10.72
2019-03-15T06:01:17.511Z,10.88
2019-03-15T06:02:50.475Z,10.73
2019-03-15T06:03:30.857Z,10.75
2019-03-15T06:04:11.239Z,10.66
2019-03-15T06:04:51.609Z,10.7
2019-03-15T06:07:04.758Z,10.55
2019-03-15T06:07:45.262Z,10.6
2019-03-15T06:08:27.514Z,10.54
2019-03-15T06:09:09.504Z,10.54
2019-03-15T06:09:49.888Z,10.51
2019-03-15T06:10:30.281Z,10.6
2019-03-15T06:11:10.654Z,10.55
2019-03-15T06:11:51.144Z,10.57
2019-03-15T06:12:31.469Z,10.63
2019-03-15T06:13:11.946Z,10.62
2019-03-15T06:13:52.418Z,10.7
2019-03-15T06:14:33.643Z,10.68
2019-03-15T06:15:15.843Z,10.63
2019-03-15T06:15:56.538Z,10.58
2019-03-15T06:16:37.379Z,10.66
2019-03-15T06:17:17.751Z,10.66
2019-03-15T06:17:58.172Z,10.58
2019-03-15T06:18:38.644Z,10.62
2019-03-15T06:19:19.947Z,10.57
2019-03-15T06:20:14.206Z,10.66
2019-03-15T06:20:54.549Z,10.66
2019-03-15T06:21:34.971Z,10.68
2019-03-15T06:22:15.400Z,10.63
2019-03-15T06:24:12.586Z,10.7
2019-03-15T06:24:53.128Z,10.63
2019-03-15T06:25:33.553Z,10.68
2019-03-15T06:26:14.195Z,10.62
2019-03-15T06:26:54.505Z,10.66
2019-03-15T06:27:34.936Z,10.66
2019-03-15T06:28:15.671Z,10.57
2019-03-15T06:28:56.112Z,10.52
2019-03-15T06:29:36.623Z,10.39
2019-03-15T06:30:17.616Z,10.35
2019-03-15T06:30:59.214Z,10.34
2019-03-15T06:31:39.737Z,10.38
2019-03-15T06:32:20.201Z,10.2
2019-03-15T06:33:00.644Z,10.29
2019-03-15T06:33:40.996Z,10.24
2019-03-15T06:34:21.492Z,10.24
2019-03-15T06:35:01.923Z,10.2
2019-03-15T06:35:42.275Z,10.25
2019-03-15T06:36:22.672Z,10.25
2019-03-15T06:37:03.091Z,10.11
2019-03-15T06:37:43.473Z,10.11
2019-03-15T06:39:36.929Z,9.95
2019-03-15T06:40:18.404Z,9.96
2019-03-15T06:40:58.785Z,9.81
2019-03-15T06:41:39.208Z,9.83
2019-03-15T06:42:19.713Z,9.77
2019-03-15T06:43:00.069Z,9.67
2019-03-15T06:43:40.523Z,9.63
2019-03-15T06:44:21.438Z,9.52
2019-03-15T06:45:02.065Z,9.5
2019-03-15T06:45:43.791Z,9.42
2019-03-15T06:46:25.551Z,9.35
2019-03-15T06:47:06.006Z,9.5
2019-03-15T06:47:46.339Z,9.52
2019-03-15T06:50:02.532Z,9.6
2019-03-15T06:50:42.815Z,9.65
2019-03-15T06:51:23.973Z,9.62
2019-03-15T06:52:04.372Z,9.6
2019-03-15T06:52:44.778Z,9.68
2019-03-15T06:53:25.274Z,9.68
2019-03-15T06:54:11.125Z,9.62
2019-03-15T06:54:47.506Z,9.65
2019-03-15T06:55:28.161Z,9.68
2019-03-15T06:56:09.444Z,9.63
2019-03-15T06:56:49.842Z,9.62
2019-03-15T06:57:31.078Z,9.62
2019-03-15T06:58:11.442Z,9.63
2019-03-15T06:58:52.084Z,9.53
2019-03-15T06:59:32.795Z,9.52
2019-03-15T07:00:14.404Z,9.53
2019-03-15T07:00:57.193Z,9.55
2019-03-15T07:01:37.028Z,9.56
2019-03-15T07:02:19.540Z,9.58
2019-03-15T07:02:59.273Z,9.45
2019-03-15T07:03:39.597Z,9.49
2019-03-15T07:04:23.760Z,9.52
2019-03-15T07:05:04.219Z,9.37
2019-03-15T07:05:44.615Z,9.42
2019-03-15T07:06:25.202Z,9.44
2019-03-15T07:07:05.711Z,9.4
2019-03-15T07:07:46.086Z,9.4
2019-03-15T07:08:26.505Z,9.37
2019-03-15T07:09:07.410Z,9.4
2019-03-15T07:09:48.469Z,9.32
2019-03-15T07:10:29.148Z,9.24
2019-03-15T07:11:09.614Z,9.27
2019-03-15T07:11:50.006Z,9.34
2019-03-15T07:12:30.544Z,9.31
2019-03-15T07:13:10.894Z,9.38
2019-03-15T07:13:51.382Z,9.32
2019-03-15T07:16:10.045Z,9.31
2019-03-15T07:16:54.110Z,9.23
2019-03-15T07:17:34.377Z,9.24
2019-03-15T07:18:18.311Z,9.17
2019-03-15T07:18:55.742Z,9.17
2019-03-15T07:19:36.186Z,9.2
2019-03-15T07:20:16.663Z,9.31
2019-03-15T07:20:57.030Z,9.32
2019-03-15T07:21:37.418Z,9.24
2019-03-15T07:22:20.053Z,9.23
2019-03-15T07:22:59.854Z,9.23
2019-03-15T07:23:40.270Z,9.24
2019-03-15T07:24:25.321Z,9.22
2019-03-15T07:25:01.490Z,9.34
2019-03-15T07:25:42.333Z,9.31
2019-03-15T07:26:25.793Z,9.34
2019-03-15T07:27:12.476Z,9.34
2019-03-15T07:27:47.301Z,9.34
2019-03-15T07:28:28.345Z,9.4
2019-03-15T07:29:09.281Z,9.5
2019-03-15T07:29:50.399Z,9.49
2019-03-15T07:30:32.820Z,9.56
2019-03-15T07:31:13.799Z,9.44
2019-03-15T07:31:54.055Z,9.62
2019-03-15T07:32:35.417Z,9.56
2019-03-15T07:33:15.584Z,9.63
2019-03-15T07:33:59.179Z,9.58
2019-03-15T07:34:41.364Z,9.68
2019-03-15T07:36:37.312Z,9.58
2019-03-15T07:37:21.466Z,9.56
2019-03-15T07:38:01.205Z,9.6
2019-03-15T07:38:41.936Z,9.52
2019-03-15T07:39:22.691Z,9.59
2019-03-15T07:40:02.777Z,9.6
2019-03-15T07:40:44.205Z,9.71
2019-03-15T07:41:25.482Z,9.68
2019-03-15T07:42:04.843Z,9.71
2019-03-15T07:42:45.388Z,9.65
2019-03-15T07:43:26.040Z,9.63
2019-03-15T07:44:08.522Z,9.56
2019-03-15T07:44:49.695Z,9.52
2019-03-15T07:45:29.799Z,9.58
2019-03-15T07:46:11.213Z,9.6
2019-03-15T07:46:51.285Z,9.5
2019-03-15T07:47:31.857Z,9.49
2019-03-15T07:48:22.130Z,9.37
2019-03-15T07:48:53.607Z,9.42
2019-03-15T07:49:36.523Z,9.26
2019-03-15T07:50:18.220Z,9.3
2019-03-15T07:50:57.981Z,9.35
2019-03-15T07:51:39.101Z,9.34
2019-03-15T07:52:19.486Z,9.19
2019-03-15T07:53:00.110Z,9.2
2019-03-15T07:53:40.544Z,9.31
2019-03-15T07:54:21.050Z,9.2
2019-03-15T07:55:02.421Z,9.2
2019-03-15T07:55:43.142Z,9.19
2019-03-15T07:56:28.583Z,9.24
2019-03-15T07:57:07.697Z,9.27
2019-03-15T07:57:48.408Z,9.34
2019-03-15T07:58:30.360Z,9.4
2019-03-15T07:59:10.950Z,9.44
2019-03-15T07:59:51.556Z,9.53
2019-03-15T08:00:32.407Z,9.65
2019-03-15T08:01:13.663Z,9.71
2019-03-15T08:01:54.260Z,9.67
2019-03-15T08:02:34.752Z,9.75
2019-03-15T08:03:16.219Z,9.77
2019-03-15T08:04:01.272Z,9.96
2019-03-15T08:04:41.787Z,10.16
2019-03-15T08:05:22.321Z,10.22
2019-03-15T08:06:03.073Z,10.24
2019-03-15T08:06:45.153Z,10.32
2019-03-15T08:07:35.660Z,10.47
2019-03-15T08:08:10.701Z,10.58
2019-03-15T08:08:56.909Z,10.84
2019-03-15T08:09:37.986Z,10.91
2019-03-15T08:10:19.428Z,10.99
2019-03-15T08:10:59.981Z,11.03
2019-03-15T08:11:42.908Z,11.21
2019-03-15T08:12:23.709Z,11.28
2019-03-15T08:13:06.481Z,11.41
2019-03-15T08:13:48.647Z,11.48
2019-03-15T08:14:29.669Z,11.67
2019-03-15T08:15:10.675Z,11.74
2019-03-15T08:15:52.530Z,11.74
2019-03-15T08:16:36.262Z,11.85
2019-03-15T08:17:18.402Z,11.9
2019-03-15T08:18:00.410Z,11.87
2019-03-15T08:18:44.453Z,11.96
2019-03-15T08:19:24.860Z,11.98
2019-03-15T08:20:08.335Z,12.01
2019-03-15T08:20:50.796Z,12.01
2019-03-15T08:21:33.202Z,12.04
2019-03-15T08:22:14.587Z,12.11
2019-03-15T08:22:54.900Z,12.08
2019-03-15T08:23:36.644Z,12.11
2019-03-15T08:24:16.974Z,12.13
2019-03-15T08:24:57.487Z,12.12
2019-03-15T08:25:40.362Z,12.22
2019-03-15T08:26:22.005Z,12.05
2019-03-15T08:27:02.531Z,12.07
2019-03-15T08:27:44.797Z,11.96
2019-03-15T08:28:25.352Z,12.08
2019-03-15T08:29:09.527Z,11.98
2019-03-15T08:29:52.632Z,12.08
2019-03-15T08:30:34.976Z,12.13
2019-03-15T08:31:30.036Z,12.13
2019-03-15T08:32:11.436Z,12.31
2019-03-15T08:32:51.901Z,12.38
2019-03-15T08:33:35.905Z,12.34
2019-03-15T08:34:18.985Z,12.34
2019-03-15T08:35:03.520Z,12.4
2019-03-15T08:35:43.493Z,12.43
2019-03-15T08:36:24.759Z,12.43
2019-03-15T08:37:07.820Z,12.44
2019-03-15T08:37:48.256Z,12.46
2019-03-15T08:38:29.699Z,12.54
2019-03-15T08:39:12.008Z,12.66
2019-03-15T08:39:52.560Z,12.7
2019-03-15T08:40:32.998Z,12.69
2019-03-15T08:41:14.866Z,12.66
2019-03-15T08:42:02.782Z,12.63
2019-03-15T08:42:45.136Z,12.59
2019-03-15T08:43:25.616Z,12.73
2019-03-15T08:44:09.062Z,12.59
2019-03-15T08:44:49.630Z,12.61
2019-03-15T08:45:33.236Z,12.52
2019-03-15T08:46:14.642Z,12.59
2019-03-15T08:46:55.782Z,12.55
2019-03-15T08:47:39.913Z,12.52
2019-03-15T08:48:25.094Z,12.54
2019-03-15T08:49:14.703Z,12.58
2019-03-15T08:49:55.483Z,12.54
2019-03-15T08:50:37.179Z,12.62
2019-03-15T08:51:22.977Z,12.74
2019-03-15T08:52:04.245Z,12.76
2019-03-15T08:52:48.796Z,12.69
2019-03-15T08:53:31.016Z,12.77
2019-03-15T08:54:14.785Z,12.77
2019-03-15T08:55:04.866Z,12.76
2019-03-15T08:55:40.297Z,12.85
2019-03-15T08:56:21.827Z,12.8
2019-03-15T08:57:04.167Z,12.79
2019-03-15T08:57:48.516Z,12.88
2019-03-15T08:58:29.800Z,12.99
2019-03-15T08:59:11.941Z,12.96
2019-03-15T08:59:57.288Z,12.95
2019-03-15T09:00:39.547Z,12.89
2019-03-15T09:01:20.024Z,12.98
2019-03-15T09:02:00.370Z,13.07
2019-03-15T09:02:40.842Z,13.03
2019-03-15T09:03:27.576Z,12.91
2019-03-15T09:04:02.251Z,12.96
2019-03-15T09:04:42.655Z,12.79
2019-03-15T09:05:24.361Z,12.73
2019-03-15T09:06:04.995Z,12.77
2019-03-15T09:06:49.701Z,12.73
2019-03-15T09:07:30.029Z,12.8
2019-03-15T09:08:12.257Z,12.7
2019-03-15T09:08:52.929Z,12.79
2019-03-15T09:09:36.060Z,12.8
2019-03-15T09:10:22.933Z,12.74
2019-03-15T09:10:59.845Z,12.81
2019-03-15T09:11:40.404Z,12.77
2019-03-15T09:12:20.950Z,12.88
2019-03-15T09:13:05.385Z,12.84
2019-03-15T09:13:49.104Z,12.85
2019-03-15T09:14:28.611Z,12.8
2019-03-15T09:15:09.079Z,12.88
2019-03-15T09:15:49.599Z,12.88
2019-03-15T09:16:34.292Z,12.91
2019-03-15T09:17:14.727Z,12.98
2019-03-15T09:17:58.981Z,13.07
2019-03-15T09:18:41.107Z,13.19
2019-03-15T09:19:22.620Z,13.16
2019-03-15T09:20:03.043Z,13.24
2019-03-15T09:20:45.206Z,13.27
2019-03-15T09:21:27.432Z,13.21
2019-03-15T09:22:08.635Z,13.22
2019-03-15T09:22:49.113Z,13.27
2019-03-15T09:23:29.578Z,13.27
2019-03-15T09:24:11.897Z,13.24
2019-03-15T09:24:54.125Z,13.28
2019-03-15T09:25:35.521Z,13.35
2019-03-15T09:26:15.889Z,13.29
2019-03-15T09:26:56.340Z,13.44
2019-03-15T09:27:39.754Z,13.41
2019-03-15T09:28:20.151Z,13.36
2019-03-15T09:29:00.611Z,13.32
2019-03-15T09:29:41.043Z,13.43
2019-03-15T09:30:24.078Z,13.48
2019-03-15T09:31:02.122Z,13.55
2019-03-15T09:31:47.891Z,13.57
2019-03-15T09:32:23.912Z,13.55
2019-03-15T09:33:06.014Z,13.5
2019-03-15T11:08:18.666Z,14.21
2019-03-15T11:09:03.358Z,14.11
2019-03-15T11:09:45.677Z,14.11
2019-03-15T11:10:26.626Z,14.19
2019-03-15T11:11:08.901Z,14.16
2019-03-15T11:11:50.051Z,14.12
2019-03-15T11:12:32.084Z,14.2
2019-03-15T11:13:14.324Z,14.16
2019-03-15T11:13:56.738Z,14.19
2019-03-15T11:14:40.376Z,14.31
2019-03-15T11:15:24.908Z,14.17
2019-03-15T11:16:07.347Z,14.13
2019-03-15T11:16:53.332Z,14.17
2019-03-15T11:17:34.145Z,14.06
2019-03-15T11:18:16.561Z,14.04
2019-03-15T11:18:58.643Z,14.17
2019-03-15T11:19:42.630Z,14.13
2019-03-15T11:20:24.905Z,14.17
2019-03-15T11:21:05.292Z,14.13
2019-03-15T11:21:47.317Z,13.99
2019-03-15T11:22:29.601Z,14.12
2019-03-15T11:23:12.174Z,14.11
2019-03-15T11:23:52.641Z,14.11
2019-03-15T11:24:34.248Z,14.13
2019-03-15T11:25:14.689Z,13.99
2019-03-15T11:26:12.633Z,13.99
2019-03-15T11:26:44.587Z,13.91
2019-03-15T11:27:27.439Z,13.91
2019-03-15T11:28:08.469Z,13.98
2019-03-15T11:28:48.839Z,13.99
2019-03-15T11:29:30.892Z,13.93
2019-03-15T11:30:11.479Z,14.01
2019-03-15T11:30:55.065Z,14.06
2019-03-15T11:31:35.685Z,14.09
2019-03-15T11:32:15.980Z,14.09
2019-03-15T11:32:59.059Z,14.04
2019-03-15T11:33:39.442Z,14.16
2019-03-15T11:34:22.078Z,14.12
2019-03-15T11:35:02.367Z,14.16
2019-03-15T11:35:42.834Z,14.17